Time;durP1;ratioP1;P1;durP2;ratioP2;P2;SDS_P1;SDS_P2;PMS_P1;PMS_P2;Temp;Humidity;BMP_temperature;BMP_pressure;BME280_temperature;BME280_humidity;BME280_pressure;Samples;Min_cycle;Max_cycle;Signal;HPM_P1;HPM_P2
2024/03/20 00:02:04;;;;;;;5.70;5.50;;;22.20;63.90;;;;;;4995202;28;20450;-64
2024/03/20 00:04:32;;;;;;;6.60;6.30;;;22.20;64.00;;;;;;4993466;28;21075;-63
2024/03/20 00:06:59;;;;;;;6.53;6.23;;;22.20;64.10;;;;;;4993252;28;20466;-64
2024/03/20 00:09:26;;;;;;;6.60;6.30;;;22.20;64.10;;;;;;4985774;28;20483;-64
2024/03/20 00:11:53;;;;;;;6.90;6.60;;;22.20;64.20;;;;;;4994833;28;20471;-63
2024/03/20 00:14:20;;;;;;;6.70;6.50;;;22.10;64.20;;;;;;4994816;28;20493;-64
2024/03/20 00:16:48;;;;;;;6.40;6.10;;;22.10;64.30;;;;;;4993478;28;20819;-62
2024/03/20 00:19:14;;;;;;;7.60;7.10;;;22.00;64.30;;;;;;4992252;28;20494;-63
2024/03/20 00:21:43;;;;;;;6.40;6.13;;;22.10;64.50;;;;;;4992288;28;20443;-63
2024/03/20 00:24:10;;;;;;;6.60;6.40;;;22.00;64.40;;;;;;4992318;28;20451;-63
2024/03/20 00:26:36;;;;;;;6.70;6.17;;;22.00;64.40;;;;;;4991728;28;20839;-63
2024/03/20 00:29:03;;;;;;;6.30;6.10;;;22.00;64.50;;;;;;4984785;28;21015;-63
2024/03/20 00:31:30;;;;;;;6.40;6.20;;;22.00;64.50;;;;;;4991025;28;20451;-63
2024/03/20 00:33:57;;;;;;;6.77;6.23;;;21.90;64.50;;;;;;4992272;28;20447;-63
2024/03/20 00:36:24;;;;;;;6.17;5.97;;;21.90;64.40;;;;;;4991809;28;20443;-63
2024/03/20 00:38:52;;;;;;;6.23;6.03;;;21.90;64.60;;;;;;4988819;28;20940;-62
2024/03/20 00:41:19;;;;;;;6.53;6.20;;;21.90;64.50;;;;;;4992268;28;20482;-62
2024/03/20 00:43:46;;;;;;;6.17;5.90;;;21.90;64.50;;;;;;4992261;28;20921;-63
2024/03/20 00:46:13;;;;;;;6.60;6.37;;;21.90;64.60;;;;;;4991858;28;20936;-62
2024/03/20 00:48:40;;;;;;;6.40;6.20;;;21.80;64.60;;;;;;4979880;28;20486;-64
2024/03/20 00:51:07;;;;;;;5.90;5.70;;;21.80;64.70;;;;;;4988052;28;20785;-63
2024/03/20 00:53:34;;;;;;;6.63;6.43;;;21.80;64.80;;;;;;4992119;28;20959;-64
2024/03/20 00:56:03;;;;;;;6.50;6.30;;;21.80;64.90;;;;;;4991653;28;20505;-63
2024/03/20 00:58:30;;;;;;;6.57;6.27;;;21.80;64.80;;;;;;4983702;28;20490;-63
2024/03/20 01:00:57;;;;;;;6.20;6.00;;;21.80;64.80;;;;;;4991964;28;20455;-62
2024/03/20 01:03:24;;;;;;;5.93;5.73;;;21.80;64.90;;;;;;4992094;28;20546;-62
2024/03/20 01:05:51;;;;;;;6.33;6.13;;;21.80;64.80;;;;;;4991853;28;20442;-62
2024/03/20 01:08:18;;;;;;;6.03;5.83;;;21.80;64.80;;;;;;4991518;28;20518;-62
2024/03/20 01:10:45;;;;;;;6.07;5.87;;;21.70;64.80;;;;;;4992075;28;20471;-62
2024/03/20 01:13:13;;;;;;;6.10;5.90;;;21.70;64.90;;;;;;4992091;28;20779;-62
2024/03/20 01:15:40;;;;;;;6.43;5.97;;;21.70;64.90;;;;;;4992605;28;20443;-62
2024/03/20 01:18:07;;;;;;;5.93;5.63;;;21.70;64.90;;;;;;4988322;28;20447;-63
2024/03/20 01:20:33;;;;;;;5.60;5.40;;;21.70;64.90;;;;;;4994400;28;20537;-62
2024/03/20 01:23:01;;;;;;;6.00;5.80;;;21.70;64.90;;;;;;4995199;28;20450;-62
2024/03/20 01:25:27;;;;;;;5.37;5.13;;;21.70;64.90;;;;;;4994725;28;20908;-62
2024/03/20 01:27:54;;;;;;;6.17;5.87;;;21.70;65.00;;;;;;4987339;28;20513;-60
2024/03/20 01:30:22;;;;;;;5.87;5.67;;;21.60;65.10;;;;;;4995271;28;20467;-62
2024/03/20 01:32:49;;;;;;;5.83;5.63;;;21.70;65.20;;;;;;4994869;28;20442;-61
2024/03/20 01:35:16;;;;;;;5.70;5.50;;;21.60;65.00;;;;;;4994250;28;20443;-61
2024/03/20 01:37:43;;;;;;;5.93;5.73;;;21.60;65.00;;;;;;4994892;28;20443;-63
2024/03/20 01:40:11;;;;;;;6.70;6.50;;;21.60;65.00;;;;;;4994909;28;20991;-62
2024/03/20 01:42:38;;;;;;;6.63;6.37;;;21.60;65.00;;;;;;4995068;28;20446;-62
2024/03/20 01:45:13;;;;;;;7.03;6.73;;;21.60;65.10;;;;;;4989802;28;20447;-62
2024/03/20 01:47:42;;;;;;;5.43;5.23;;;21.60;65.00;;;;;;4994367;28;20438;-63
2024/03/20 01:50:10;;;;;;;5.57;5.47;;;21.50;64.90;;;;;;4994809;28;20470;-62
2024/03/20 01:52:49;;;;;;;5.40;5.30;;;21.50;65.00;;;;;;4994787;28;20450;-63
2024/03/20 01:55:16;;;;;;;5.40;5.30;;;21.50;65.10;;;;;;4990841;28;20443;-62
2024/03/20 01:57:43;;;;;;;5.83;5.73;;;21.60;65.20;;;;;;4986685;28;20451;-63
2024/03/20 02:00:13;;;;;;;6.07;5.77;;;21.50;65.10;;;;;;4994438;28;20486;-63
2024/03/20 02:02:44;;;;;;;5.87;5.67;;;21.50;65.00;;;;;;4985613;28;20447;-63
2024/03/20 02:05:12;;;;;;;7.00;6.70;;;21.50;65.00;;;;;;4994996;28;20543;-64
2024/03/20 02:07:39;;;;;;;7.77;7.47;;;21.50;65.00;;;;;;4995612;28;20521;-65
2024/03/20 02:10:07;;;;;;;6.40;6.20;;;21.50;65.00;;;;;;4995825;28;20859;-65
2024/03/20 02:12:34;;;;;;;6.90;6.60;;;21.50;65.00;;;;;;4994413;28;20443;-65
2024/03/20 02:15:08;;;;;;;7.20;6.90;;;21.50;65.00;;;;;;4995118;28;20446;-65
2024/03/20 02:17:35;;;;;;;8.87;8.37;;;21.50;65.10;;;;;;4995416;28;20461;-65
2024/03/20 02:20:05;;;;;;;6.03;5.73;;;21.50;65.00;;;;;;4994969;28;20459;-65
2024/03/20 02:22:36;;;;;;;5.97;5.77;;;21.50;65.90;;;;;;4987402;28;20556;-65
2024/03/20 02:25:04;;;;;;;5.93;5.73;;;21.50;65.10;;;;;;4995524;28;20446;-65
2024/03/20 02:27:31;;;;;;;6.43;6.23;;;21.40;65.00;;;;;;4993914;28;20801;-64
2024/03/20 02:29:58;;;;;;;6.47;6.17;;;21.40;65.00;;;;;;4995238;28;20484;-64
2024/03/20 02:32:25;;;;;;;5.70;5.60;;;21.40;65.10;;;;;;4994989;28;20453;-64
2024/03/20 02:34:53;;;;;;;6.20;6.00;;;21.40;65.00;;;;;;4996042;28;21008;-64
2024/03/20 02:37:20;;;;;;;5.70;5.50;;;21.40;65.10;;;;;;4995174;28;20451;-64
2024/03/20 02:39:48;;;;;;;6.00;5.80;;;21.40;65.10;;;;;;4995371;28;20542;-65
2024/03/20 02:42:16;;;;;;;5.73;5.53;;;21.40;65.10;;;;;;4993146;28;20455;-64
2024/03/20 02:44:43;;;;;;;5.30;5.20;;;21.40;65.00;;;;;;4986714;28;20438;-64
2024/03/20 02:47:11;;;;;;;5.80;5.60;;;21.40;65.00;;;;;;4993607;28;20455;-63
2024/03/20 02:49:37;;;;;;;5.90;5.70;;;21.30;64.90;;;;;;4994045;28;20487;-63
2024/03/20 02:52:05;;;;;;;5.77;5.57;;;21.40;65.00;;;;;;4994545;28;20447;-63
2024/03/20 02:54:32;;;;;;;6.60;6.30;;;21.30;64.90;;;;;;4994462;28;20455;-64
2024/03/20 02:57:00;;;;;;;6.10;5.90;;;21.40;65.00;;;;;;4994267;28;20936;-65
2024/03/20 02:59:27;;;;;;;6.00;5.80;;;21.40;65.00;;;;;;4994234;28;20827;-65
2024/03/20 03:01:54;;;;;;;6.20;5.80;;;21.30;65.00;;;;;;4993500;28;20534;-65
2024/03/20 03:04:20;;;;;;;6.67;6.17;;;21.30;65.00;;;;;;4985844;28;20474;-64
2024/03/20 03:06:48;;;;;;;6.50;6.20;;;21.30;65.00;;;;;;4986461;28;20447;-65
2024/03/20 03:09:17;;;;;;;7.23;6.73;;;21.30;65.10;;;;;;4994287;28;20486;-64
2024/03/20 03:11:45;;;;;;;6.17;5.97;;;21.30;65.10;;;;;;4990101;28;20445;-65
2024/03/20 03:14:13;;;;;;;6.03;5.50;;;21.30;65.20;;;;;;4989640;28;20450;-65
2024/03/20 03:16:40;;;;;;;6.13;5.80;;;21.30;65.20;;;;;;4993132;28;20688;-64
2024/03/20 03:19:09;;;;;;;6.20;5.90;;;21.30;65.40;;;;;;4993875;28;20477;-64
2024/03/20 03:21:36;;;;;;;5.87;5.57;;;21.30;65.50;;;;;;4989176;28;20470;-65
2024/03/20 03:24:03;;;;;;;6.57;6.20;;;21.20;65.40;;;;;;4993909;28;20883;-63
2024/03/20 03:26:30;;;;;;;5.80;5.53;;;21.20;65.40;;;;;;4993776;28;20455;-65
2024/03/20 03:28:57;;;;;;;6.13;5.83;;;21.30;65.60;;;;;;4992991;28;20494;-64
2024/03/20 03:31:26;;;;;;;6.17;5.97;;;21.20;65.50;;;;;;4985151;28;20455;-64
2024/03/20 03:33:53;;;;;;;6.00;5.80;;;21.20;65.50;;;;;;4985393;28;20443;-65
2024/03/20 03:36:20;;;;;;;6.30;6.10;;;21.20;65.60;;;;;;4993031;28;20446;-65
2024/03/20 03:38:47;;;;;;;7.83;7.53;;;21.20;65.70;;;;;;4993354;28;20450;-65
2024/03/20 03:41:13;;;;;;;6.60;6.40;;;21.20;65.70;;;;;;4989412;28;20952;-64
2024/03/20 03:43:40;;;;;;;5.80;5.63;;;21.20;65.80;;;;;;4993099;28;20458;-65
2024/03/20 03:46:07;;;;;;;5.77;5.57;;;21.20;65.80;;;;;;4992801;28;20439;-64
2024/03/20 03:48:35;;;;;;;6.50;6.20;;;21.10;65.80;;;;;;4992975;28;20833;-65
2024/03/20 03:51:03;;;;;;;6.20;6.00;;;21.10;65.70;;;;;;4986824;28;20444;-63
2024/03/20 03:53:30;;;;;;;6.13;5.93;;;21.20;65.80;;;;;;4989811;28;20476;-63
2024/03/20 03:55:56;;;;;;;6.13;5.93;;;21.20;65.60;;;;;;4992103;28;20443;-63
2024/03/20 03:58:23;;;;;;;6.80;6.40;;;21.10;65.40;;;;;;4991429;28;20446;-63
2024/03/20 04:00:50;;;;;;;6.00;5.80;;;21.20;65.50;;;;;;4992298;28;20466;-64
2024/03/20 04:03:16;;;;;;;6.30;6.10;;;21.20;65.20;;;;;;4992263;28;20454;-60
2024/03/20 04:05:45;;;;;;;6.50;6.23;;;21.10;65.30;;;;;;4991884;28;20465;-61
2024/03/20 04:08:11;;;;;;;6.60;6.30;;;21.20;65.50;;;;;;4992363;28;20501;-63
2024/03/20 04:10:38;;;;;;;6.23;6.03;;;21.10;65.40;;;;;;4990631;28;20482;-61
2024/03/20 04:13:05;;;;;;;7.07;6.77;;;21.20;65.40;;;;;;4992182;28;20447;-59
2024/03/20 04:15:32;;;;;;;6.83;6.53;;;21.10;65.30;;;;;;4991644;28;20446;-62
2024/03/20 04:17:59;;;;;;;6.37;6.17;;;21.10;65.30;;;;;;4985679;28;20526;-60
2024/03/20 04:20:27;;;;;;;6.33;6.13;;;21.10;65.30;;;;;;4991896;28;20496;-62
2024/03/20 04:22:55;;;;;;;6.30;6.10;;;21.10;65.30;;;;;;4992381;28;20451;-62
2024/03/20 04:25:28;;;;;;;5.83;5.63;;;21.10;65.20;;;;;;4991722;28;20443;-61
2024/03/20 04:27:55;;;;;;;6.90;6.53;;;21.20;65.20;;;;;;4980184;28;20452;-62
2024/03/20 04:30:23;;;;;;;6.90;6.60;;;21.10;65.20;;;;;;4987981;28;20486;-63
2024/03/20 04:32:50;;;;;;;6.40;6.10;;;21.10;65.20;;;;;;4992169;28;20469;-61
2024/03/20 04:35:16;;;;;;;6.57;6.27;;;21.10;65.10;;;;;;4991615;28;20447;-63
2024/03/20 04:37:43;;;;;;;6.07;5.87;;;21.10;65.20;;;;;;4987854;28;20485;-62
2024/03/20 04:40:13;;;;;;;6.37;6.17;;;21.10;65.20;;;;;;4986708;28;20463;-62
2024/03/20 04:42:39;;;;;;;7.77;7.47;;;21.10;65.30;;;;;;4992009;28;20447;-62
2024/03/20 04:45:07;;;;;;;6.13;5.93;;;21.10;65.30;;;;;;4992162;28;20477;-62
2024/03/20 04:47:34;;;;;;;6.83;6.63;;;21.10;65.20;;;;;;4986864;28;20444;-62
2024/03/20 04:50:01;;;;;;;6.47;6.27;;;21.10;65.20;;;;;;4992311;28;21007;-63
2024/03/20 04:52:27;;;;;;;6.40;6.20;;;21.10;65.20;;;;;;4995756;28;20447;-62
2024/03/20 04:54:56;;;;;;;6.10;5.90;;;21.10;65.10;;;;;;4996018;28;20962;-62
2024/03/20 04:57:24;;;;;;;6.37;6.07;;;21.10;65.00;;;;;;4994987;28;20517;-62
2024/03/20 04:59:51;;;;;;;6.20;6.00;;;21.10;65.00;;;;;;4987558;28;20470;-63
2024/03/20 05:02:18;;;;;;;6.13;5.93;;;21.00;64.90;;;;;;4995548;28;20462;-62
2024/03/20 05:04:45;;;;;;;7.00;6.70;;;21.10;64.90;;;;;;4995497;28;20449;-62
2024/03/20 05:07:11;;;;;;;7.30;7.00;;;21.10;64.70;;;;;;4993749;28;20447;-62
2024/03/20 05:09:39;;;;;;;6.80;6.60;;;21.00;64.70;;;;;;4987174;28;20491;-63
2024/03/20 05:12:05;;;;;;;7.27;6.97;;;21.10;64.70;;;;;;4995444;28;20447;-63
2024/03/20 05:14:33;;;;;;;6.90;6.50;;;21.00;64.60;;;;;;4995126;28;20955;-63
2024/03/20 05:17:00;;;;;;;7.07;6.80;;;21.00;64.70;;;;;;4994921;28;20442;-63
2024/03/20 05:19:27;;;;;;;6.90;6.60;;;21.00;64.70;;;;;;4991754;28;20475;-63
2024/03/20 05:21:54;;;;;;;7.30;6.70;;;21.00;64.80;;;;;;4979533;28;20439;-63
2024/03/20 05:24:19;;;;;;;6.77;6.57;;;21.00;64.70;;;;;;4995161;28;20453;-64
2024/03/20 05:26:46;;;;;;;6.90;6.70;;;21.00;64.70;;;;;;4986060;28;20953;-63
2024/03/20 05:29:12;;;;;;;6.60;6.40;;;21.00;64.80;;;;;;4995127;28;20227;-63
2024/03/20 05:31:42;;;;;;;6.40;6.30;;;21.00;64.80;;;;;;4995092;28;20951;-63
2024/03/20 05:34:10;;;;;;;7.23;6.93;;;21.00;64.90;;;;;;4995190;28;20209;-63
2024/03/20 05:36:36;;;;;;;7.17;6.47;;;21.00;65.00;;;;;;4993913;28;20939;-63
2024/03/20 05:39:03;;;;;;;7.43;7.13;;;21.00;65.10;;;;;;4986174;28;20466;-63
2024/03/20 05:41:29;;;;;;;6.73;6.53;;;21.00;65.10;;;;;;4994730;28;20447;-63
2024/03/20 05:43:56;;;;;;;6.63;6.43;;;21.00;65.10;;;;;;4994889;28;20447;-63
2024/03/20 05:46:23;;;;;;;6.93;6.73;;;21.00;65.20;;;;;;4994323;28;21006;-63
2024/03/20 05:48:51;;;;;;;6.90;6.60;;;21.00;65.30;;;;;;4994551;28;20453;-64
2024/03/20 05:51:18;;;;;;;6.57;6.27;;;21.00;65.30;;;;;;4994586;28;20458;-63
2024/03/20 05:53:43;;;;;;;7.00;6.70;;;21.00;65.40;;;;;;4994556;28;20450;-63
2024/03/20 05:56:10;;;;;;;6.70;6.40;;;21.00;65.60;;;;;;4993200;28;20454;-63
2024/03/20 05:58:36;;;;;;;7.33;6.80;;;21.00;66.10;;;;;;4986185;28;20207;-63
2024/03/20 06:01:03;;;;;;;7.17;6.77;;;21.00;65.80;;;;;;4994333;28;20948;-64
2024/03/20 06:03:29;;;;;;;6.93;6.53;;;21.00;66.00;;;;;;4993332;28;20210;-66
2024/03/20 06:05:57;;;;;;;7.33;7.03;;;21.00;65.70;;;;;;4991317;28;20439;-65
2024/03/20 06:08:24;;;;;;;8.40;7.53;;;21.10;65.90;;;;;;4989755;28;20741;-66
2024/03/20 06:10:51;;;;;;;7.00;6.70;;;21.20;66.40;;;;;;4993841;28;20487;-66
2024/03/20 06:13:18;;;;;;;7.30;6.80;;;21.30;67.00;;;;;;4994061;28;20932;-65
2024/03/20 06:15:44;;;;;;;8.47;7.80;;;21.40;66.50;;;;;;4993795;28;20825;-65
2024/03/20 06:18:11;;;;;;;7.83;7.30;;;21.40;66.30;;;;;;4988321;28;20454;-64
2024/03/20 06:20:36;;;;;;;7.50;7.10;;;21.50;66.40;;;;;;5008942;23;20590;-66
2024/03/20 06:23:05;;;;;;;6.93;6.73;;;21.50;66.40;;;;;;4993499;28;20447;-66
2024/03/20 06:25:30;;;;;;;7.07;6.83;;;21.50;66.50;;;;;;4994025;28;20211;-66
2024/03/20 06:27:57;;;;;;;7.50;6.80;;;21.60;65.90;;;;;;4993922;28;20443;-68
2024/03/20 06:30:25;;;;;;;7.63;7.40;;;21.60;65.60;;;;;;4986014;28;20586;-64
2024/03/20 06:32:52;;;;;;;7.23;6.87;;;21.70;65.60;;;;;;4993056;28;20940;-64
2024/03/20 06:35:17;;;;;;;7.40;7.03;;;21.70;65.20;;;;;;4993703;28;20455;-65
2024/03/20 06:37:45;;;;;;;8.23;7.83;;;21.70;65.10;;;;;;4993564;28;20447;-66
2024/03/20 06:40:13;;;;;;;7.37;7.07;;;21.70;65.20;;;;;;4993101;28;20223;-65
2024/03/20 06:42:40;;;;;;;8.30;7.70;;;21.80;66.00;;;;;;4985482;28;20529;-64
2024/03/20 06:45:06;;;;;;;8.30;7.90;;;21.80;65.40;;;;;;4993730;28;20455;-70
2024/03/20 06:47:33;;;;;;;20.60;9.00;;;21.90;65.10;;;;;;4993704;28;20490;-67
2024/03/20 06:49:59;;;;;;;8.60;8.00;;;21.90;64.80;;;;;;4993089;28;21002;-67
2024/03/20 06:52:26;;;;;;;8.53;8.03;;;22.00;65.00;;;;;;4985207;28;20461;-66
2024/03/20 06:54:52;;;;;;;7.20;6.90;;;22.20;64.50;;;;;;4993236;28;20443;-65
2024/03/20 06:57:20;;;;;;;7.97;7.67;;;22.20;64.10;;;;;;4993200;28;20947;-65
2024/03/20 06:59:46;;;;;;;6.17;5.83;;;22.30;63.90;;;;;;4984840;28;20313;-63
2024/03/20 07:02:14;;;;;;;6.07;5.77;;;22.30;63.60;;;;;;4993213;28;20943;-65
2024/03/20 07:04:40;;;;;;;6.20;5.90;;;22.20;63.70;;;;;;4993357;28;20452;-64
2024/03/20 07:07:11;;;;;;;5.67;5.33;;;22.20;63.70;;;;;;4993131;28;20998;-65
2024/03/20 07:09:37;;;;;;;5.80;5.50;;;22.20;64.00;;;;;;4985964;28;20234;-63
2024/03/20 07:12:04;;;;;;;6.47;6.00;;;22.20;63.70;;;;;;4993208;28;20466;-59
2024/03/20 07:14:32;;;;;;;5.97;5.40;;;22.20;63.40;;;;;;4992772;28;20461;-62
2024/03/20 07:16:59;;;;;;;5.60;5.30;;;22.20;63.30;;;;;;4977055;28;20458;-61
2024/03/20 07:19:24;;;;;;;5.90;5.70;;;22.20;63.10;;;;;;4985235;28;20510;-63
2024/03/20 07:21:51;;;;;;;7.30;7.00;;;22.20;64.00;;;;;;4991856;28;20439;-61
2024/03/20 07:24:17;;;;;;;12.77;7.60;;;22.20;64.70;;;;;;4993073;28;20219;-65
2024/03/20 07:26:43;;;;;;;9.80;7.60;;;22.30;67.50;;;;;;4989602;28;20434;-65
2024/03/20 07:29:11;;;;;;;13.17;9.40;;;22.10;69.20;;;;;;4986199;28;20207;-66
2024/03/20 07:31:40;;;;;;;17.30;9.17;;;22.10;70.30;;;;;;4992477;28;20482;-64
2024/03/20 07:34:06;;;;;;;10.50;7.63;;;22.00;70.50;;;;;;4992722;28;20443;-65
2024/03/20 07:36:34;;;;;;;19.00;9.37;;;21.90;70.30;;;;;;4991902;28;20797;-66
2024/03/20 07:39:00;;;;;;;13.10;8.13;;;21.80;70.10;;;;;;4984630;28;20439;-65
2024/03/20 07:41:27;;;;;;;10.43;9.30;;;21.80;69.90;;;;;;4992284;28;20463;-65
2024/03/20 07:43:53;;;;;;;7.93;7.00;;;21.80;69.70;;;;;;4992300;28;20450;-66
2024/03/20 07:46:19;;;;;;;8.97;8.17;;;21.80;69.50;;;;;;4992065;28;20474;-65
2024/03/20 07:48:47;;;;;;;9.20;8.40;;;21.70;69.30;;;;;;4992239;28;20218;-65
2024/03/20 07:51:15;;;;;;;9.87;7.50;;;21.70;69.10;;;;;;4992196;28;20504;-64
2024/03/20 07:53:41;;;;;;;9.30;8.13;;;21.70;69.00;;;;;;4992159;28;20450;-64
2024/03/20 07:56:08;;;;;;;11.00;8.67;;;21.70;68.80;;;;;;4992030;28;20538;-64
2024/03/20 07:58:34;;;;;;;8.37;7.53;;;21.60;68.50;;;;;;4992181;28;20454;-65
2024/03/20 08:01:01;;;;;;;8.53;7.80;;;21.60;68.40;;;;;;4991952;28;20467;-65
2024/03/20 08:03:27;;;;;;;8.17;7.43;;;21.60;68.30;;;;;;4992223;28;20819;-65
2024/03/20 08:05:55;;;;;;;9.73;8.87;;;21.60;68.10;;;;;;4991717;28;20450;-65
2024/03/20 08:08:21;;;;;;;8.83;8.00;;;21.60;67.90;;;;;;4991951;28;20208;-65
2024/03/20 08:10:48;;;;;;;10.73;7.50;;;21.60;67.70;;;;;;4991727;28;20506;-64
2024/03/20 08:13:14;;;;;;;10.20;9.13;;;21.50;67.50;;;;;;4992078;28;20450;-64
2024/03/20 08:15:42;;;;;;;8.20;7.30;;;21.50;67.30;;;;;;4991707;28;20447;-64
2024/03/20 08:18:08;;;;;;;8.50;7.50;;;21.50;67.30;;;;;;4991980;28;20207;-64
2024/03/20 08:20:34;;;;;;;7.93;7.30;;;21.50;67.20;;;;;;4991824;28;20549;-64
2024/03/20 08:23:02;;;;;;;8.43;7.77;;;21.50;67.10;;;;;;4983930;28;20749;-64
2024/03/20 08:25:29;;;;;;;9.80;8.70;;;21.50;67.00;;;;;;4992673;28;20458;-64
2024/03/20 08:27:55;;;;;;;9.60;8.67;;;21.50;66.90;;;;;;4995799;28;20442;-64
2024/03/20 08:30:22;;;;;;;7.73;7.33;;;21.50;66.90;;;;;;4995785;28;20489;-64
2024/03/20 08:32:48;;;;;;;8.27;7.70;;;21.40;66.60;;;;;;4995799;28;20533;-64
2024/03/20 08:35:17;;;;;;;7.90;7.30;;;21.40;66.60;;;;;;4995522;28;20529;-64
2024/03/20 08:37:42;;;;;;;8.00;7.40;;;21.40;66.50;;;;;;4995486;28;20207;-64
2024/03/20 08:40:12;;;;;;;8.00;7.20;;;21.40;66.40;;;;;;4995686;28;20462;-64
2024/03/20 08:42:37;;;;;;;8.57;7.87;;;21.40;66.30;;;;;;4995692;28;20698;-64
2024/03/20 08:45:05;;;;;;;8.53;7.97;;;21.40;66.20;;;;;;4995657;28;20518;-64
2024/03/20 08:47:32;;;;;;;9.57;7.63;;;21.40;66.10;;;;;;4995167;28;20246;-64
2024/03/20 08:49:58;;;;;;;8.30;7.50;;;21.30;65.90;;;;;;4995476;28;20561;-64
2024/03/20 08:52:25;;;;;;;7.60;6.97;;;21.30;65.80;;;;;;4995399;28;20447;-64
2024/03/20 08:54:52;;;;;;;7.63;7.00;;;21.30;65.80;;;;;;4995364;28;20454;-64
2024/03/20 08:57:19;;;;;;;9.80;7.07;;;21.40;65.80;;;;;;4995319;28;20453;-64
2024/03/20 08:59:46;;;;;;;10.50;8.07;;;21.30;65.60;;;;;;4995238;28;20466;-64
2024/03/20 09:02:12;;;;;;;8.07;7.57;;;21.30;65.50;;;;;;4995213;28;20442;-63
2024/03/20 09:04:40;;;;;;;7.93;7.40;;;21.30;65.40;;;;;;4991279;28;20470;-74
2024/03/20 09:07:06;;;;;;;6.70;6.50;;;21.40;68.70;;;;;;4987441;28;20812;-69
2024/03/20 09:09:33;;;;;;;7.37;6.97;;;21.40;67.40;;;;;;4991066;28;20516;-70
2024/03/20 09:11:59;;;;;;;7.23;6.73;;;21.40;67.20;;;;;;4995169;28;20439;-69
2024/03/20 09:14:29;;;;;;;7.87;7.10;;;21.50;67.40;;;;;;4994445;28;20470;-68
2024/03/20 09:16:54;;;;;;;7.40;7.00;;;21.50;67.30;;;;;;4986904;28;20211;-68
2024/03/20 09:19:21;;;;;;;6.47;6.07;;;21.60;67.70;;;;;;4995089;28;20808;-68
2024/03/20 09:21:47;;;;;;;11.30;6.80;;;21.70;67.50;;;;;;4995112;28;20206;-69
2024/03/20 09:24:17;;;;;;;7.00;6.70;;;21.70;67.20;;;;;;4989736;28;20481;-68
2024/03/20 09:26:43;;;;;;;7.07;6.77;;;21.80;67.70;;;;;;4992028;28;20869;-67
2024/03/20 09:29:11;;;;;;;7.07;6.67;;;21.80;67.10;;;;;;4994122;28;20451;-66
2024/03/20 09:31:38;;;;;;;7.83;7.27;;;21.80;66.50;;;;;;4989860;28;21022;-66
2024/03/20 09:34:05;;;;;;;7.40;7.10;;;21.80;66.60;;;;;;4987028;28;20443;-68
2024/03/20 09:36:31;;;;;;;6.83;6.43;;;21.80;66.90;;;;;;4994238;28;20454;-70
2024/03/20 09:38:58;;;;;;;6.57;6.00;;;21.80;67.10;;;;;;4994904;28;20447;-69
2024/03/20 09:41:24;;;;;;;6.23;5.83;;;21.80;67.30;;;;;;4988395;28;20228;-68
2024/03/20 09:43:52;;;;;;;6.90;6.23;;;21.90;67.00;;;;;;4994775;28;20450;-71
2024/03/20 09:46:20;;;;;;;6.30;5.90;;;21.90;66.70;;;;;;4989348;28;20454;-70
2024/03/20 09:48:48;;;;;;;6.17;5.90;;;22.00;66.50;;;;;;4986655;28;20475;-66
2024/03/20 09:51:14;;;;;;;7.27;6.67;;;22.00;66.90;;;;;;4982674;28;20494;-70
2024/03/20 09:53:42;;;;;;;6.80;6.50;;;22.00;67.10;;;;;;4991388;28;20451;-69
2024/03/20 09:56:09;;;;;;;6.73;6.23;;;22.10;67.20;;;;;;4994163;28;20215;-69
2024/03/20 09:58:37;;;;;;;6.47;6.17;;;22.10;66.90;;;;;;4994656;28;20447;-70
2024/03/20 10:01:07;;;;;;;7.07;6.30;;;22.10;66.70;;;;;;4985530;28;20455;-71
2024/03/20 10:03:34;;;;;;;6.50;6.20;;;22.20;66.90;;;;;;4994459;28;20445;-71
2024/03/20 10:06:01;;;;;;;6.83;6.43;;;22.20;66.70;;;;;;4993929;28;20451;-68
2024/03/20 10:08:28;;;;;;;6.13;5.77;;;22.20;66.60;;;;;;4994281;28;20451;-69
2024/03/20 10:10:54;;;;;;;7.17;6.70;;;22.20;66.30;;;;;;4992509;28;20850;-68
2024/03/20 10:13:21;;;;;;;7.27;6.80;;;22.30;66.30;;;;;;4994239;28;20447;-70
2024/03/20 10:15:47;;;;;;;6.80;6.10;;;22.30;66.20;;;;;;4993829;28;20204;-69
2024/03/20 10:18:17;;;;;;;6.53;6.20;;;22.30;66.70;;;;;;4992605;28;20498;-70
2024/03/20 10:20:43;;;;;;;6.50;6.20;;;22.30;66.20;;;;;;4985861;28;20471;-71
2024/03/20 10:23:16;;;;;;;7.13;6.63;;;22.30;66.20;;;;;;4994405;28;20449;-70
2024/03/20 10:25:42;;;;;;;5.80;5.70;;;22.30;66.10;;;;;;4995299;28;20207;-70
2024/03/20 10:28:14;;;;;;;6.67;6.43;;;22.40;66.10;;;;;;4992469;28;20435;-71
2024/03/20 10:30:40;;;;;;;7.57;7.17;;;22.40;66.00;;;;;;4985920;28;20243;-70
2024/03/20 10:33:08;;;;;;;7.80;7.23;;;22.40;66.00;;;;;;4985983;28;20439;-70
2024/03/20 10:35:35;;;;;;;6.00;5.80;;;22.40;66.30;;;;;;4993304;28;20514;-71
2024/03/20 10:38:02;;;;;;;6.90;6.50;;;22.40;66.00;;;;;;4992453;28;20453;-72
2024/03/20 10:40:33;;;;;;;6.70;6.30;;;22.40;65.70;;;;;;4993883;28;21006;-71
2024/03/20 10:43:00;;;;;;;6.40;6.10;;;22.40;66.00;;;;;;4993520;28;20451;-68
2024/03/20 10:45:26;;;;;;;9.65;9.25;;;22.50;66.10;;;;;;4990750;28;20452;-72
2024/03/20 10:47:54;;;;;;;10.60;10.30;;;22.50;65.80;;;;;;4988749;28;20204;-67
2024/03/20 10:50:20;;;;;;;11.43;10.93;;;22.60;66.10;;;;;;4993707;28;20246;-68
2024/03/20 10:52:48;;;;;;;11.90;11.07;;;22.50;65.50;;;;;;4993221;28;20525;-68
2024/03/20 10:55:16;;;;;;;11.50;11.10;;;22.50;65.50;;;;;;4993577;28;20446;-66
2024/03/20 10:57:46;;;;;;;12.03;11.53;;;22.50;65.80;;;;;;4993175;28;20497;-66
2024/03/20 11:00:15;;;;;;;11.27;10.60;;;22.50;66.00;;;;;;4985984;28;20462;-68
2024/03/20 11:02:41;;;;;;;11.10;10.70;;;22.50;66.10;;;;;;4993157;28;20443;-60
2024/03/20 11:05:37;;;;;;;11.40;11.03;;;22.50;65.60;;;;;;4992815;28;20803;-64
2024/03/20 11:08:07;;;;;;;12.07;11.50;;;22.50;65.50;;;;;;4991419;28;20458;-65
2024/03/20 11:10:33;;;;;;;11.77;11.30;;;22.50;65.30;;;;;;4993198;28;20514;-65
2024/03/20 11:13:04;;;;;;;11.40;10.90;;;22.60;65.10;;;;;;4993016;28;20443;-64
2024/03/20 11:15:31;;;;;;;13.93;13.43;;;22.60;65.00;;;;;;4992806;28;20808;-63
2024/03/20 11:17:59;;;;;;;17.20;16.50;;;22.60;64.80;;;;;;4992958;28;20450;-62
2024/03/20 11:20:45;;;;;;;17.43;16.83;;;22.70;64.50;;;;;;4992729;28;20470;-66
2024/03/20 11:23:22;;;;;;;12.13;11.67;;;22.80;64.00;;;;;;4985066;28;20453;-67
2024/03/20 11:25:48;;;;;;;12.23;11.73;;;22.80;64.70;;;;;;4992468;28;20501;-67
2024/03/20 11:28:18;;;;;;;12.30;11.80;;;22.80;63.80;;;;;;4992633;28;20439;-66
2024/03/20 11:30:46;;;;;;;12.43;11.80;;;22.80;63.70;;;;;;4992421;28;20575;-67
2024/03/20 11:33:12;;;;;;;12.50;11.80;;;22.80;63.70;;;;;;4985084;28;20858;-67
2024/03/20 11:35:39;;;;;;;12.27;11.87;;;22.80;63.80;;;;;;4992136;28;20454;-67
2024/03/20 11:38:06;;;;;;;11.73;11.27;;;22.80;64.00;;;;;;4992129;28;20495;-66
2024/03/20 11:40:32;;;;;;;11.97;11.57;;;22.80;63.90;;;;;;4984268;28;20976;-65
2024/03/20 11:42:59;;;;;;;12.10;11.70;;;22.90;63.90;;;;;;4992557;28;20474;-67
2024/03/20 11:45:26;;;;;;;12.17;11.77;;;22.90;63.30;;;;;;4992148;28;20454;-65
2024/03/20 11:47:54;;;;;;;12.37;11.80;;;22.90;64.20;;;;;;4992229;28;20940;-70
2024/03/20 11:50:20;;;;;;;17.40;16.70;;;22.80;64.70;;;;;;4992313;28;20491;-68
2024/03/20 11:52:52;;;;;;;16.80;16.20;;;22.90;65.00;;;;;;4992675;28;20485;-64
2024/03/20 11:55:18;;;;;;;11.50;10.90;;;23.00;65.20;;;;;;4992628;28;20802;-68
2024/03/20 11:57:44;;;;;;;10.40;9.90;;;23.00;65.90;;;;;;4991410;28;20436;-69
2024/03/20 12:00:12;;;;;;;11.90;11.27;;;23.00;65.40;;;;;;4991091;28;20224;-68
2024/03/20 12:02:43;;;;;;;12.03;10.80;;;23.00;65.00;;;;;;4992260;28;20447;-67
2024/03/20 12:05:10;;;;;;;11.50;11.00;;;23.10;64.80;;;;;;4992070;28;20458;-65
2024/03/20 12:07:39;;;;;;;17.63;16.10;;;23.00;64.70;;;;;;4991714;28;20442;-64
2024/03/20 12:10:26;;;;;;;16.47;15.77;;;23.10;65.40;;;;;;4992025;28;20470;-64
2024/03/20 12:12:53;;;;;;;10.90;10.40;;;23.30;65.50;;;;;;4991745;28;20939;-64
2024/03/20 12:15:21;;;;;;;11.67;10.87;;;23.30;66.30;;;;;;4991869;28;20442;-64
2024/03/20 12:17:50;;;;;;;10.20;9.80;;;23.20;66.00;;;;;;4991876;28;20450;-66
2024/03/20 12:20:16;;;;;;;10.60;10.30;;;23.10;66.50;;;;;;4991835;28;20478;-65
2024/03/20 12:22:44;;;;;;;11.00;10.70;;;23.10;66.30;;;;;;4992237;28;20450;-65
2024/03/20 12:25:11;;;;;;;11.23;10.83;;;23.10;66.40;;;;;;4992075;28;20920;-64
2024/03/20 12:27:38;;;;;;;10.80;10.50;;;23.20;66.40;;;;;;4991507;28;20453;-63
2024/03/20 12:30:15;;;;;;;11.63;11.33;;;23.20;65.30;;;;;;4991848;28;20466;-62
2024/03/20 12:32:43;;;;;;;11.97;11.50;;;23.20;65.10;;;;;;4991870;28;20447;-63
2024/03/20 12:35:11;;;;;;;11.90;11.40;;;23.20;65.10;;;;;;4991763;28;20983;-64
2024/03/20 12:37:38;;;;;;;11.67;11.07;;;23.20;65.00;;;;;;4991448;28;20542;-63
2024/03/20 12:40:05;;;;;;;11.83;11.43;;;23.20;64.90;;;;;;4991762;28;20521;-61
2024/03/20 12:42:32;;;;;;;12.40;11.50;;;23.20;65.10;;;;;;4992079;28;20463;-63
2024/03/20 12:44:58;;;;;;;12.50;12.00;;;23.20;65.00;;;;;;4992047;28;20778;-62